sensor_id;sensor_type;location;lat;lon;timestamp;temperature;humidity
45012;DHT22;63444;48.148;11.542;2023-02-28T00:00:21;-0.10;97.10
45012;DHT22;63444;48.148;11.542;2023-02-28T00:02:47;-0.10;97.20
45012;DHT22;63444;48.148;11.542;2023-02-28T00:05:17;-0.10;97.20
45012;DHT22;63444;48.148;11.542;2023-02-28T00:07:43;-0.10;97.20
45012;DHT22;63444;48.148;11.542;2023-02-28T00:10:11;-0.10;97.20
45012;DHT22;63444;48.148;11.542;2023-02-28T00:12:39;-0.10;97.20
45012;DHT22;63444;48.148;11.542;2023-02-28T00:15:10;-0.10;97.30
45012;DHT22;63444;48.148;11.542;2023-02-28T00:17:36;-0.10;97.30
45012;DHT22;63444;48.148;11.542;2023-02-28T00:20:03;-0.20;97.30
45012;DHT22;63444;48.148;11.542;2023-02-28T00:22:40;-0.20;97.40
45012;DHT22;63444;48.148;11.542;2023-02-28T00:25:06;-0.20;97.40
45012;DHT22;63444;48.148;11.542;2023-02-28T00:27:33;-0.20;97.40
45012;DHT22;63444;48.148;11.542;2023-02-28T00:29:59;-0.20;97.50
45012;DHT22;63444;48.148;11.542;2023-02-28T00:32:25;-0.20;97.50
45012;DHT22;63444;48.148;11.542;2023-02-28T00:34:50;-0.20;97.50
45012;DHT22;63444;48.148;11.542;2023-02-28T00:37:16;-0.30;97.60
45012;DHT22;63444;48.148;11.542;2023-02-28T00:39:41;-0.30;97.60
45012;DHT22;63444;48.148;11.542;2023-02-28T00:42:07;-0.30;97.70
45012;DHT22;63444;48.148;11.542;2023-02-28T00:44:33;-0.40;97.70
45012;DHT22;63444;48.148;11.542;2023-02-28T00:47:00;-0.40;97.80
45012;DHT22;63444;48.148;11.542;2023-02-28T00:49:27;-0.40;97.90
45012;DHT22;63444;48.148;11.542;2023-02-28T00:51:54;-0.40;97.90
45012;DHT22;63444;48.148;11.542;2023-02-28T00:54:20;-0.40;97.90
45012;DHT22;63444;48.148;11.542;2023-02-28T00:56:45;-0.40;97.90
45012;DHT22;63444;48.148;11.542;2023-02-28T00:59:12;-0.40;97.90
45012;DHT22;63444;48.148;11.542;2023-02-28T01:01:38;-0.40;97.90
45012;DHT22;63444;48.148;11.542;2023-02-28T01:04:03;-0.40;98.00
45012;DHT22;63444;48.148;11.542;2023-02-28T01:06:30;-0.40;97.90
45012;DHT22;63444;48.148;11.542;2023-02-28T01:08:55;-0.40;97.90
45012;DHT22;63444;48.148;11.542;2023-02-28T01:11:21;-0.40;97.90
45012;DHT22;63444;48.148;11.542;2023-02-28T01:13:47;-0.40;98.00
45012;DHT22;63444;48.148;11.542;2023-02-28T01:16:13;-0.50;98.00
45012;DHT22;63444;48.148;11.542;2023-02-28T01:18:39;-0.50;98.00
45012;DHT22;63444;48.148;11.542;2023-02-28T01:21:10;-0.50;98.00
45012;DHT22;63444;48.148;11.542;2023-02-28T01:23:36;-0.50;98.10
45012;DHT22;63444;48.148;11.542;2023-02-28T01:26:10;-0.50;98.20
45012;DHT22;63444;48.148;11.542;2023-02-28T01:28:37;-0.50;98.20
45012;DHT22;63444;48.148;11.542;2023-02-28T01:31:03;-0.60;98.20
45012;DHT22;63444;48.148;11.542;2023-02-28T01:33:28;-0.60;98.20
45012;DHT22;63444;48.148;11.542;2023-02-28T01:35:59;-0.50;98.30
45012;DHT22;63444;48.148;11.542;2023-02-28T01:38:25;-0.50;98.30
45012;DHT22;63444;48.148;11.542;2023-02-28T01:40:50;-0.50;98.30
45012;DHT22;63444;48.148;11.542;2023-02-28T01:43:29;-0.50;98.40
45012;DHT22;63444;48.148;11.542;2023-02-28T01:45:56;-0.50;98.40
45012;DHT22;63444;48.148;11.542;2023-02-28T01:48:26;-0.50;98.40
45012;DHT22;63444;48.148;11.542;2023-02-28T01:50:54;-0.60;98.40
45012;DHT22;63444;48.148;11.542;2023-02-28T01:53:24;-0.60;98.50
45012;DHT22;63444;48.148;11.542;2023-02-28T01:55:54;-0.60;98.60
45012;DHT22;63444;48.148;11.542;2023-02-28T01:58:20;-0.60;98.60
45012;DHT22;63444;48.148;11.542;2023-02-28T02:00:46;-0.60;98.60
45012;DHT22;63444;48.148;11.542;2023-02-28T02:03:16;-0.50;98.60
45012;DHT22;63444;48.148;11.542;2023-02-28T02:05:44;-0.60;98.50
45012;DHT22;63444;48.148;11.542;2023-02-28T02:08:19;-0.60;98.60
45012;DHT22;63444;48.148;11.542;2023-02-28T02:10:48;-0.60;98.50
45012;DHT22;63444;48.148;11.542;2023-02-28T02:13:38;-0.60;98.60
45012;DHT22;63444;48.148;11.542;2023-02-28T02:25:17;-0.70;98.80
45012;DHT22;63444;48.148;11.542;2023-02-28T02:27:46;-0.70;98.90
45012;DHT22;63444;48.148;11.542;2023-02-28T02:33:31;-0.70;98.90
45012;DHT22;63444;48.148;11.542;2023-02-28T02:36:27;-0.70;98.90
45012;DHT22;63444;48.148;11.542;2023-02-28T02:41:46;-0.80;99.00
45012;DHT22;63444;48.148;11.542;2023-02-28T02:44:25;-0.80;99.10
45012;DHT22;63444;48.148;11.542;2023-02-28T02:46:58;-0.80;99.10
45012;DHT22;63444;48.148;11.542;2023-02-28T02:49:28;-0.80;99.20
45012;DHT22;63444;48.148;11.542;2023-02-28T02:51:58;-0.80;99.20
45012;DHT22;63444;48.148;11.542;2023-02-28T02:54:28;-0.80;99.30
45012;DHT22;63444;48.148;11.542;2023-02-28T02:56:58;-0.80;99.30
45012;DHT22;63444;48.148;11.542;2023-02-28T02:59:26;-0.90;99.30
45012;DHT22;63444;48.148;11.542;2023-02-28T03:01:56;-0.90;99.40
45012;DHT22;63444;48.148;11.542;2023-02-28T03:04:24;-0.90;99.50
45012;DHT22;63444;48.148;11.542;2023-02-28T03:06:52;-0.90;99.50
45012;DHT22;63444;48.148;11.542;2023-02-28T03:09:21;-0.90;99.70
45012;DHT22;63444;48.148;11.542;2023-02-28T03:11:47;-0.90;99.80
45012;DHT22;63444;48.148;11.542;2023-02-28T03:14:39;-0.90;99.90
45012;DHT22;63444;48.148;11.542;2023-02-28T03:25:27;-1.00;99.90
45012;DHT22;63444;48.148;11.542;2023-02-28T03:33:17;-1.00;99.90
45012;DHT22;63444;48.148;11.542;2023-02-28T03:35:50;-1.00;99.90
45012;DHT22;63444;48.148;11.542;2023-02-28T03:38:18;-1.10;99.90
45012;DHT22;63444;48.148;11.542;2023-02-28T03:40:50;-1.10;99.90
45012;DHT22;63444;48.148;11.542;2023-02-28T03:43:24;-1.00;99.90
45012;DHT22;63444;48.148;11.542;2023-02-28T03:45:53;-1.00;99.90
45012;DHT22;63444;48.148;11.542;2023-02-28T03:48:31;-1.00;99.90
45012;DHT22;63444;48.148;11.542;2023-02-28T03:50:59;-1.00;99.90
45012;DHT22;63444;48.148;11.542;2023-02-28T03:53:32;-1.00;99.90
45012;DHT22;63444;48.148;11.542;2023-02-28T03:56:14;-1.00;99.90
45012;DHT22;63444;48.148;11.542;2023-02-28T04:01:16;-1.00;99.90
45012;DHT22;63444;48.148;11.542;2023-02-28T04:03:44;-1.00;99.90
45012;DHT22;63444;48.148;11.542;2023-02-28T04:06:15;-1.00;99.90
45012;DHT22;63444;48.148;11.542;2023-02-28T04:08:42;-1.00;99.90
45012;DHT22;63444;48.148;11.542;2023-02-28T04:14:18;-1.00;99.90
45012;DHT22;63444;48.148;11.542;2023-02-28T04:16:44;-1.00;99.90
45012;DHT22;63444;48.148;11.542;2023-02-28T04:19:12;-1.00;99.90
45012;DHT22;63444;48.148;11.542;2023-02-28T04:24:07;-1.00;99.90
45012;DHT22;63444;48.148;11.542;2023-02-28T04:26:35;-1.00;99.90
45012;DHT22;63444;48.148;11.542;2023-02-28T04:29:03;-1.00;99.90
45012;DHT22;63444;48.148;11.542;2023-02-28T04:31:29;-1.00;99.90
45012;DHT22;63444;48.148;11.542;2023-02-28T04:33:55;-0.90;99.90
45012;DHT22;63444;48.148;11.542;2023-02-28T04:36:22;-0.90;99.90
45012;DHT22;63444;48.148;11.542;2023-02-28T04:38:48;-0.90;99.90
45012;DHT22;63444;48.148;11.542;2023-02-28T04:41:16;-0.90;99.90
45012;DHT22;63444;48.148;11.542;2023-02-28T04:43:44;-0.90;99.90
45012;DHT22;63444;48.148;11.542;2023-02-28T04:46:10;-0.90;99.90
45012;DHT22;63444;48.148;11.542;2023-02-28T04:48:37;-0.90;99.90
45012;DHT22;63444;48.148;11.542;2023-02-28T04:51:08;-0.90;99.90
45012;DHT22;63444;48.148;11.542;2023-02-28T04:53:36;-0.80;99.90
45012;DHT22;63444;48.148;11.542;2023-02-28T04:56:03;-0.90;99.90
45012;DHT22;63444;48.148;11.542;2023-02-28T04:58:29;-0.90;99.90
45012;DHT22;63444;48.148;11.542;2023-02-28T05:01:02;-0.80;99.90
45012;DHT22;63444;48.148;11.542;2023-02-28T05:03:28;-0.90;99.90
45012;DHT22;63444;48.148;11.542;2023-02-28T05:05:54;-0.90;99.90
45012;DHT22;63444;48.148;11.542;2023-02-28T05:08:19;-0.80;99.90
45012;DHT22;63444;48.148;11.542;2023-02-28T05:10:45;-0.80;99.90
45012;DHT22;63444;48.148;11.542;2023-02-28T05:13:13;-0.80;99.90
45012;DHT22;63444;48.148;11.542;2023-02-28T05:15:39;-0.70;99.90
45012;DHT22;63444;48.148;11.542;2023-02-28T05:18:04;-0.80;99.90
45012;DHT22;63444;48.148;11.542;2023-02-28T05:20:30;-0.80;99.90
45012;DHT22;63444;48.148;11.542;2023-02-28T05:22:57;-0.80;99.90
45012;DHT22;63444;48.148;11.542;2023-02-28T05:25:24;-0.80;99.90
45012;DHT22;63444;48.148;11.542;2023-02-28T05:27:49;-0.70;99.90
45012;DHT22;63444;48.148;11.542;2023-02-28T05:30:16;-0.70;99.90
45012;DHT22;63444;48.148;11.542;2023-02-28T05:32:42;-0.70;99.90
45012;DHT22;63444;48.148;11.542;2023-02-28T05:35:09;-0.70;99.90
45012;DHT22;63444;48.148;11.542;2023-02-28T05:37:37;-0.70;99.90
45012;DHT22;63444;48.148;11.542;2023-02-28T05:40:04;-0.60;99.90
45012;DHT22;63444;48.148;11.542;2023-02-28T05:42:37;-0.60;99.90
45012;DHT22;63444;48.148;11.542;2023-02-28T05:45:03;-0.50;99.90
45012;DHT22;63444;48.148;11.542;2023-02-28T05:47:29;-0.50;99.90
45012;DHT22;63444;48.148;11.542;2023-02-28T05:49:55;-0.50;99.90
45012;DHT22;63444;48.148;11.542;2023-02-28T05:52:20;-0.50;99.90
45012;DHT22;63444;48.148;11.542;2023-02-28T05:54:46;-0.50;99.90
45012;DHT22;63444;48.148;11.542;2023-02-28T05:57:13;-0.60;99.90
45012;DHT22;63444;48.148;11.542;2023-02-28T05:59:38;-0.50;99.90
45012;DHT22;63444;48.148;11.542;2023-02-28T06:02:06;-0.50;99.90
45012;DHT22;63444;48.148;11.542;2023-02-28T06:04:31;-0.50;99.90
45012;DHT22;63444;48.148;11.542;2023-02-28T06:06:57;-0.50;99.90
45012;DHT22;63444;48.148;11.542;2023-02-28T06:09:23;-0.50;99.90
45012;DHT22;63444;48.148;11.542;2023-02-28T06:11:48;-0.50;99.90
45012;DHT22;63444;48.148;11.542;2023-02-28T06:14:17;-0.50;99.90
45012;DHT22;63444;48.148;11.542;2023-02-28T06:16:47;-0.60;99.90
45012;DHT22;63444;48.148;11.542;2023-02-28T06:19:12;-0.60;99.90
45012;DHT22;63444;48.148;11.542;2023-02-28T06:21:38;-0.60;99.90
45012;DHT22;63444;48.148;11.542;2023-02-28T06:24:05;-0.60;99.90
45012;DHT22;63444;48.148;11.542;2023-02-28T06:26:32;-0.60;99.90
45012;DHT22;63444;48.148;11.542;2023-02-28T06:28:57;-0.60;99.90
45012;DHT22;63444;48.148;11.542;2023-02-28T06:31:23;-0.60;99.90
45012;DHT22;63444;48.148;11.542;2023-02-28T06:33:51;-0.60;99.90
45012;DHT22;63444;48.148;11.542;2023-02-28T06:36:17;-0.60;99.90
45012;DHT22;63444;48.148;11.542;2023-02-28T06:38:43;-0.60;99.90
45012;DHT22;63444;48.148;11.542;2023-02-28T06:41:10;-0.60;99.90
45012;DHT22;63444;48.148;11.542;2023-02-28T06:43:40;-0.60;99.90
45012;DHT22;63444;48.148;11.542;2023-02-28T06:46:08;-0.50;99.90
45012;DHT22;63444;48.148;11.542;2023-02-28T06:48:37;-0.60;99.90
45012;DHT22;63444;48.148;11.542;2023-02-28T06:51:11;-0.50;99.90
45012;DHT22;63444;48.148;11.542;2023-02-28T06:53:37;-0.50;99.90
45012;DHT22;63444;48.148;11.542;2023-02-28T06:56:06;-0.60;99.90
45012;DHT22;63444;48.148;11.542;2023-02-28T06:58:33;-0.60;99.90
45012;DHT22;63444;48.148;11.542;2023-02-28T07:00:58;-0.50;99.90
45012;DHT22;63444;48.148;11.542;2023-02-28T07:03:24;-0.60;99.90
45012;DHT22;63444;48.148;11.542;2023-02-28T07:05:49;-0.60;99.90
45012;DHT22;63444;48.148;11.542;2023-02-28T07:08:16;-0.50;99.90
45012;DHT22;63444;48.148;11.542;2023-02-28T07:10:43;-0.50;99.90
45012;DHT22;63444;48.148;11.542;2023-02-28T07:13:10;-0.40;99.90
45012;DHT22;63444;48.148;11.542;2023-02-28T07:15:38;-0.40;99.90
45012;DHT22;63444;48.148;11.542;2023-02-28T07:18:04;-0.40;99.90
45012;DHT22;63444;48.148;11.542;2023-02-28T07:20:30;-0.40;99.90
45012;DHT22;63444;48.148;11.542;2023-02-28T07:22:56;-0.40;99.90
45012;DHT22;63444;48.148;11.542;2023-02-28T07:25:23;-0.40;99.90
45012;DHT22;63444;48.148;11.542;2023-02-28T07:27:49;-0.40;99.90
45012;DHT22;63444;48.148;11.542;2023-02-28T07:30:15;-0.40;99.90
45012;DHT22;63444;48.148;11.542;2023-02-28T07:32:41;-0.40;99.90
45012;DHT22;63444;48.148;11.542;2023-02-28T07:35:08;-0.30;99.90
45012;DHT22;63444;48.148;11.542;2023-02-28T07:37:34;-0.30;99.90
45012;DHT22;63444;48.148;11.542;2023-02-28T07:40:07;-0.20;99.90
45012;DHT22;63444;48.148;11.542;2023-02-28T07:42:35;-0.20;99.90
45012;DHT22;63444;48.148;11.542;2023-02-28T07:45:02;-0.20;99.90
45012;DHT22;63444;48.148;11.542;2023-02-28T07:47:31;-0.30;99.90
45012;DHT22;63444;48.148;11.542;2023-02-28T07:49:57;-0.20;99.90
45012;DHT22;63444;48.148;11.542;2023-02-28T07:52:24;-0.20;99.90
45012;DHT22;63444;48.148;11.542;2023-02-28T07:54:51;-0.20;99.90
45012;DHT22;63444;48.148;11.542;2023-02-28T07:57:17;-0.10;99.90
45012;DHT22;63444;48.148;11.542;2023-02-28T07:59:45;-0.10;99.90
45012;DHT22;63444;48.148;11.542;2023-02-28T08:02:13;-0.10;99.90
45012;DHT22;63444;48.148;11.542;2023-02-28T08:04:39;-0.10;99.90
45012;DHT22;63444;48.148;11.542;2023-02-28T08:07:05;-0.10;99.90
45012;DHT22;63444;48.148;11.542;2023-02-28T08:09:31;-0.10;99.90
45012;DHT22;63444;48.148;11.542;2023-02-28T08:11:56;-0.10;99.90
45012;DHT22;63444;48.148;11.542;2023-02-28T08:14:22;-0.10;99.90
45012;DHT22;63444;48.148;11.542;2023-02-28T08:16:47;-0.10;99.90
45012;DHT22;63444;48.148;11.542;2023-02-28T08:19:13;0.00;99.90
45012;DHT22;63444;48.148;11.542;2023-02-28T08:21:39;0.10;99.90
45012;DHT22;63444;48.148;11.542;2023-02-28T08:24:05;0.10;99.90
45012;DHT22;63444;48.148;11.542;2023-02-28T08:26:31;0.10;99.90
45012;DHT22;63444;48.148;11.542;2023-02-28T08:28:57;0.10;99.90
45012;DHT22;63444;48.148;11.542;2023-02-28T08:31:22;0.10;99.90
45012;DHT22;63444;48.148;11.542;2023-02-28T08:33:48;0.10;99.90
45012;DHT22;63444;48.148;11.542;2023-02-28T08:36:16;0.10;99.90
45012;DHT22;63444;48.148;11.542;2023-02-28T08:38:42;0.00;99.90
45012;DHT22;63444;48.148;11.542;2023-02-28T08:41:10;0.00;99.90
45012;DHT22;63444;48.148;11.542;2023-02-28T08:43:37;0.00;99.90
45012;DHT22;63444;48.148;11.542;2023-02-28T08:46:04;0.00;99.90
45012;DHT22;63444;48.148;11.542;2023-02-28T08:48:32;0.00;99.90
45012;DHT22;63444;48.148;11.542;2023-02-28T08:51:07;0.00;99.90
45012;DHT22;63444;48.148;11.542;2023-02-28T08:53:35;0.10;99.90
45012;DHT22;63444;48.148;11.542;2023-02-28T08:56:03;0.20;99.90
45012;DHT22;63444;48.148;11.542;2023-02-28T08:58:29;0.20;99.90
45012;DHT22;63444;48.148;11.542;2023-02-28T09:00:55;0.20;99.90
45012;DHT22;63444;48.148;11.542;2023-02-28T09:03:21;0.20;99.90
45012;DHT22;63444;48.148;11.542;2023-02-28T09:06:01;0.20;99.90
45012;DHT22;63444;48.148;11.542;2023-02-28T09:08:29;0.20;99.90
45012;DHT22;63444;48.148;11.542;2023-02-28T09:10:55;0.30;99.90
45012;DHT22;63444;48.148;11.542;2023-02-28T09:13:23;0.30;99.90
45012;DHT22;63444;48.148;11.542;2023-02-28T09:15:49;0.40;99.90
45012;DHT22;63444;48.148;11.542;2023-02-28T09:18:15;0.30;99.90
45012;DHT22;63444;48.148;11.542;2023-02-28T09:20:42;0.30;99.90
45012;DHT22;63444;48.148;11.542;2023-02-28T09:23:09;0.30;99.90
45012;DHT22;63444;48.148;11.542;2023-02-28T09:25:35;0.40;99.90
45012;DHT22;63444;48.148;11.542;2023-02-28T09:28:01;0.40;99.90
45012;DHT22;63444;48.148;11.542;2023-02-28T09:30:28;0.40;99.90
45012;DHT22;63444;48.148;11.542;2023-02-28T09:32:54;0.40;99.90
45012;DHT22;63444;48.148;11.542;2023-02-28T09:35:21;0.40;99.90
45012;DHT22;63444;48.148;11.542;2023-02-28T09:37:49;0.40;99.90
45012;DHT22;63444;48.148;11.542;2023-02-28T09:40:22;0.40;99.90
45012;DHT22;63444;48.148;11.542;2023-02-28T09:42:49;0.40;99.90
45012;DHT22;63444;48.148;11.542;2023-02-28T09:45:24;0.40;99.90
45012;DHT22;63444;48.148;11.542;2023-02-28T09:47:55;0.40;99.90
45012;DHT22;63444;48.148;11.542;2023-02-28T09:55:50;0.60;99.90
45012;DHT22;63444;48.148;11.542;2023-02-28T09:58:39;0.60;99.90
45012;DHT22;63444;48.148;11.542;2023-02-28T10:06:51;0.80;99.90
45012;DHT22;63444;48.148;11.542;2023-02-28T10:09:25;0.90;99.90
45012;DHT22;63444;48.148;11.542;2023-02-28T10:11:54;1.10;99.90
45012;DHT22;63444;48.148;11.542;2023-02-28T10:14:25;1.20;99.80
45012;DHT22;63444;48.148;11.542;2023-02-28T10:17:10;1.40;99.50
45012;DHT22;63444;48.148;11.542;2023-02-28T10:19:49;1.50;99.20
45012;DHT22;63444;48.148;11.542;2023-02-28T10:22:41;1.50;99.20
45012;DHT22;63444;48.148;11.542;2023-02-28T10:25:21;1.60;99.20
45012;DHT22;63444;48.148;11.542;2023-02-28T10:27:47;1.70;99.00
45012;DHT22;63444;48.148;11.542;2023-02-28T10:30:14;1.80;98.90
45012;DHT22;63444;48.148;11.542;2023-02-28T10:32:44;1.90;98.80
45012;DHT22;63444;48.148;11.542;2023-02-28T10:35:22;2.10;98.70
45012;DHT22;63444;48.148;11.542;2023-02-28T10:37:55;2.70;98.20
45012;DHT22;63444;48.148;11.542;2023-02-28T10:42:58;4.50;95.00
45012;DHT22;63444;48.148;11.542;2023-02-28T10:45:25;4.70;94.20
45012;DHT22;63444;48.148;11.542;2023-02-28T10:53:28;4.50;93.40
45012;DHT22;63444;48.148;11.542;2023-02-28T10:56:14;4.60;93.50
45012;DHT22;63444;48.148;11.542;2023-02-28T10:59:00;4.70;93.20
45012;DHT22;63444;48.148;11.542;2023-02-28T11:03:58;4.80;92.90
45012;DHT22;63444;48.148;11.542;2023-02-28T11:06:33;4.70;92.40
45012;DHT22;63444;48.148;11.542;2023-02-28T11:09:02;4.60;92.30
45012;DHT22;63444;48.148;11.542;2023-02-28T11:11:43;4.50;92.20
45012;DHT22;63444;48.148;11.542;2023-02-28T11:14:22;4.50;92.40
45012;DHT22;63444;48.148;11.542;2023-02-28T11:16:51;4.60;92.30
45012;DHT22;63444;48.148;11.542;2023-02-28T11:19:43;5.30;92.30
45012;DHT22;63444;48.148;11.542;2023-02-28T11:22:09;6.10;91.00
45012;DHT22;63444;48.148;11.542;2023-02-28T11:24:45;6.60;90.70
45012;DHT22;63444;48.148;11.542;2023-02-28T11:27:46;6.90;89.30
45012;DHT22;63444;48.148;11.542;2023-02-28T11:32:57;6.00;89.30
45012;DHT22;63444;48.148;11.542;2023-02-28T11:35:33;5.80;89.30
45012;DHT22;63444;48.148;11.542;2023-02-28T11:38:01;5.60;90.00
45012;DHT22;63444;48.148;11.542;2023-02-28T11:40:30;5.40;90.00
45012;DHT22;63444;48.148;11.542;2023-02-28T11:48:57;9.60;84.60
45012;DHT22;63444;48.148;11.542;2023-02-28T11:51:35;10.60;78.70
45012;DHT22;63444;48.148;11.542;2023-02-28T11:54:44;11.10;75.80
45012;DHT22;63444;48.148;11.542;2023-02-28T12:00:13;10.60;74.70
45012;DHT22;63444;48.148;11.542;2023-02-28T12:03:03;11.00;74.40
45012;DHT22;63444;48.148;11.542;2023-02-28T12:05:46;11.20;73.50
45012;DHT22;63444;48.148;11.542;2023-02-28T12:11:11;12.00;69.10
45012;DHT22;63444;48.148;11.542;2023-02-28T12:25:13;10.70;69.80
45012;DHT22;63444;48.148;11.542;2023-02-28T12:27:48;10.40;70.50
45012;DHT22;63444;48.148;11.542;2023-02-28T12:30:35;10.00;71.30
45012;DHT22;63444;48.148;11.542;2023-02-28T12:33:09;9.70;72.90
45012;DHT22;63444;48.148;11.542;2023-02-28T12:35:44;9.30;73.90
45012;DHT22;63444;48.148;11.542;2023-02-28T12:38:24;9.10;74.70
45012;DHT22;63444;48.148;11.542;2023-02-28T12:41:16;9.00;75.40
45012;DHT22;63444;48.148;11.542;2023-02-28T12:43:48;8.80;75.20
45012;DHT22;63444;48.148;11.542;2023-02-28T12:46:23;8.50;75.80
45012;DHT22;63444;48.148;11.542;2023-02-28T12:48:55;8.30;76.50
45012;DHT22;63444;48.148;11.542;2023-02-28T12:51:22;8.10;77.00
45012;DHT22;63444;48.148;11.542;2023-02-28T12:57:02;7.90;77.40
45012;DHT22;63444;48.148;11.542;2023-02-28T12:59:52;7.60;77.90
45012;DHT22;63444;48.148;11.542;2023-02-28T13:10:53;6.90;79.80
45012;DHT22;63444;48.148;11.542;2023-02-28T13:13:23;6.80;80.00
45012;DHT22;63444;48.148;11.542;2023-02-28T13:16:06;6.70;80.50
45012;DHT22;63444;48.148;11.542;2023-02-28T13:18:46;6.60;80.90
45012;DHT22;63444;48.148;11.542;2023-02-28T13:21:29;6.60;81.00
45012;DHT22;63444;48.148;11.542;2023-02-28T13:23:57;6.60;81.40
45012;DHT22;63444;48.148;11.542;2023-02-28T13:29:01;6.50;82.50
45012;DHT22;63444;48.148;11.542;2023-02-28T13:31:30;6.50;82.10
45012;DHT22;63444;48.148;11.542;2023-02-28T13:36:30;6.30;82.40
45012;DHT22;63444;48.148;11.542;2023-02-28T13:38:58;6.10;82.70
45012;DHT22;63444;48.148;11.542;2023-02-28T13:41:40;6.10;83.50
45012;DHT22;63444;48.148;11.542;2023-02-28T13:49:28;6.00;84.30
45012;DHT22;63444;48.148;11.542;2023-02-28T13:54:58;5.90;83.80
45012;DHT22;63444;48.148;11.542;2023-02-28T14:05:22;6.00;85.10
45012;DHT22;63444;48.148;11.542;2023-02-28T14:07:56;6.00;85.10
45012;DHT22;63444;48.148;11.542;2023-02-28T14:10:28;6.00;84.60
45012;DHT22;63444;48.148;11.542;2023-02-28T14:12:58;6.00;84.60
45012;DHT22;63444;48.148;11.542;2023-02-28T14:15:44;5.90;84.30
45012;DHT22;63444;48.148;11.542;2023-02-28T14:20:49;5.90;84.50
45012;DHT22;63444;48.148;11.542;2023-02-28T14:23:34;5.90;84.90
45012;DHT22;63444;48.148;11.542;2023-02-28T14:32:10;5.70;85.00
45012;DHT22;63444;48.148;11.542;2023-02-28T14:34:47;5.60;85.30
45012;DHT22;63444;48.148;11.542;2023-02-28T14:37:20;5.60;85.20
45012;DHT22;63444;48.148;11.542;2023-02-28T14:39:50;5.60;85.30
45012;DHT22;63444;48.148;11.542;2023-02-28T14:42:31;5.60;85.40
45012;DHT22;63444;48.148;11.542;2023-02-28T14:44:58;5.50;85.70
45012;DHT22;63444;48.148;11.542;2023-02-28T14:47:30;5.50;86.00
45012;DHT22;63444;48.148;11.542;2023-02-28T14:50:02;5.60;86.00
45012;DHT22;63444;48.148;11.542;2023-02-28T14:52:31;5.60;86.20
45012;DHT22;63444;48.148;11.542;2023-02-28T14:55:05;5.60;86.00
45012;DHT22;63444;48.148;11.542;2023-02-28T14:57:34;5.50;85.80
45012;DHT22;63444;48.148;11.542;2023-02-28T15:00:14;5.50;85.90
45012;DHT22;63444;48.148;11.542;2023-02-28T15:02:40;5.40;86.10
45012;DHT22;63444;48.148;11.542;2023-02-28T15:07:35;5.30;86.30
45012;DHT22;63444;48.148;11.542;2023-02-28T15:10:23;5.30;86.70
45012;DHT22;63444;48.148;11.542;2023-02-28T15:13:01;5.30;86.80
45012;DHT22;63444;48.148;11.542;2023-02-28T15:18:04;5.20;87.10
45012;DHT22;63444;48.148;11.542;2023-02-28T15:20:32;5.20;87.30
45012;DHT22;63444;48.148;11.542;2023-02-28T15:22:59;5.20;87.40
45012;DHT22;63444;48.148;11.542;2023-02-28T15:25:26;5.10;87.70
45012;DHT22;63444;48.148;11.542;2023-02-28T15:27:56;5.10;88.40
45012;DHT22;63444;48.148;11.542;2023-02-28T15:30:31;5.10;88.30
45012;DHT22;63444;48.148;11.542;2023-02-28T15:33:17;5.10;88.60
45012;DHT22;63444;48.148;11.542;2023-02-28T15:35:43;5.10;88.70
45012;DHT22;63444;48.148;11.542;2023-02-28T15:38:26;5.10;88.90
45012;DHT22;63444;48.148;11.542;2023-02-28T15:40:57;5.00;89.20
45012;DHT22;63444;48.148;11.542;2023-02-28T15:43:28;5.00;89.50
45012;DHT22;63444;48.148;11.542;2023-02-28T15:46:09;5.00;89.60
45012;DHT22;63444;48.148;11.542;2023-02-28T15:48:42;5.00;89.60
45012;DHT22;63444;48.148;11.542;2023-02-28T15:51:16;5.00;89.60
45012;DHT22;63444;48.148;11.542;2023-02-28T15:53:50;5.00;89.80
45012;DHT22;63444;48.148;11.542;2023-02-28T15:56:28;5.00;90.00
45012;DHT22;63444;48.148;11.542;2023-02-28T15:59:05;5.00;90.10
45012;DHT22;63444;48.148;11.542;2023-02-28T16:01:36;5.00;90.10
45012;DHT22;63444;48.148;11.542;2023-02-28T16:04:13;5.10;90.00
45012;DHT22;63444;48.148;11.542;2023-02-28T16:06:43;5.00;90.10
45012;DHT22;63444;48.148;11.542;2023-02-28T16:09:15;5.10;90.40
45012;DHT22;63444;48.148;11.542;2023-02-28T16:11:45;5.10;90.10
45012;DHT22;63444;48.148;11.542;2023-02-28T16:14:18;5.00;90.30
45012;DHT22;63444;48.148;11.542;2023-02-28T16:16:46;5.00;90.20
45012;DHT22;63444;48.148;11.542;2023-02-28T16:19:13;4.90;90.30
45012;DHT22;63444;48.148;11.542;2023-02-28T16:21:39;4.90;90.40
45012;DHT22;63444;48.148;11.542;2023-02-28T16:24:05;4.80;90.50
45012;DHT22;63444;48.148;11.542;2023-02-28T16:26:31;4.80;90.50
45012;DHT22;63444;48.148;11.542;2023-02-28T16:29:00;4.80;90.60
45012;DHT22;63444;48.148;11.542;2023-02-28T16:31:26;4.80;90.50
45012;DHT22;63444;48.148;11.542;2023-02-28T16:33:51;4.80;90.60
45012;DHT22;63444;48.148;11.542;2023-02-28T16:36:20;4.80;90.60
45012;DHT22;63444;48.148;11.542;2023-02-28T16:38:45;4.80;90.60
45012;DHT22;63444;48.148;11.542;2023-02-28T16:41:19;4.80;90.60
45012;DHT22;63444;48.148;11.542;2023-02-28T16:43:47;4.70;90.70
45012;DHT22;63444;48.148;11.542;2023-02-28T16:46:14;4.80;90.70
45012;DHT22;63444;48.148;11.542;2023-02-28T16:48:41;4.80;91.00
45012;DHT22;63444;48.148;11.542;2023-02-28T16:51:12;4.80;91.00
45012;DHT22;63444;48.148;11.542;2023-02-28T16:53:38;4.80;91.00
45012;DHT22;63444;48.148;11.542;2023-02-28T16:56:04;4.80;91.00
45012;DHT22;63444;48.148;11.542;2023-02-28T16:58:33;4.80;91.00
45012;DHT22;63444;48.148;11.542;2023-02-28T17:01:03;4.70;91.00
45012;DHT22;63444;48.148;11.542;2023-02-28T17:03:28;4.70;91.10
45012;DHT22;63444;48.148;11.542;2023-02-28T17:05:57;4.70;91.10
45012;DHT22;63444;48.148;11.542;2023-02-28T17:08:23;4.70;91.20
45012;DHT22;63444;48.148;11.542;2023-02-28T17:10:49;4.60;91.20
45012;DHT22;63444;48.148;11.542;2023-02-28T17:13:15;4.60;91.30
45012;DHT22;63444;48.148;11.542;2023-02-28T17:15:44;4.70;91.40
45012;DHT22;63444;48.148;11.542;2023-02-28T17:18:16;4.60;91.40
45012;DHT22;63444;48.148;11.542;2023-02-28T17:20:44;4.50;91.60
45012;DHT22;63444;48.148;11.542;2023-02-28T17:23:12;4.50;91.60
45012;DHT22;63444;48.148;11.542;2023-02-28T17:25:38;4.50;91.80
45012;DHT22;63444;48.148;11.542;2023-02-28T17:28:04;4.50;91.80
45012;DHT22;63444;48.148;11.542;2023-02-28T17:30:33;4.50;91.80
45012;DHT22;63444;48.148;11.542;2023-02-28T17:32:59;4.50;91.90
45012;DHT22;63444;48.148;11.542;2023-02-28T17:35:25;4.40;91.90
45012;DHT22;63444;48.148;11.542;2023-02-28T17:37:53;4.40;92.00
45012;DHT22;63444;48.148;11.542;2023-02-28T17:40:21;4.40;92.10
45012;DHT22;63444;48.148;11.542;2023-02-28T17:42:47;4.40;92.20
45012;DHT22;63444;48.148;11.542;2023-02-28T17:45:14;4.40;92.30
45012;DHT22;63444;48.148;11.542;2023-02-28T17:47:40;4.40;92.30
45012;DHT22;63444;48.148;11.542;2023-02-28T17:50:14;4.40;92.30